sensor_id;sensor_type;location;lat;lon;timestamp;P1;durP1;ratioP1;P2;durP2;ratioP2
59474;SDS011;45288;51.136;16.928;2024-01-10T00:01:15;173.50;;;58.13;;
59474;SDS011;45288;51.136;16.928;2024-01-10T00:04:12;162.67;;;54.53;;
59474;SDS011;45288;51.136;16.928;2024-01-10T00:06:44;163.25;;;55.13;;
59474;SDS011;45288;51.136;16.928;2024-01-10T00:09:37;175.63;;;56.35;;
59474;SDS011;45288;51.136;16.928;2024-01-10T00:12:09;160.20;;;55.25;;
59474;SDS011;45288;51.136;16.928;2024-01-10T00:15:05;164.10;;;57.17;;
59474;SDS011;45288;51.136;16.928;2024-01-10T00:17:38;180.20;;;57.17;;
59474;SDS011;45288;51.136;16.928;2024-01-10T00:20:31;174.45;;;56.38;;
59474;SDS011;45288;51.136;16.928;2024-01-10T00:23:03;167.30;;;56.95;;
59474;SDS011;45288;51.136;16.928;2024-01-10T00:25:57;175.35;;;57.33;;
59474;SDS011;45288;51.136;16.928;2024-01-10T00:28:29;173.55;;;57.58;;
59474;SDS011;45288;51.136;16.928;2024-01-10T00:31:22;174.52;;;57.40;;
59474;SDS011;45288;51.136;16.928;2024-01-10T00:33:54;170.25;;;56.42;;
59474;SDS011;45288;51.136;16.928;2024-01-10T00:36:47;179.25;;;58.20;;
59474;SDS011;45288;51.136;16.928;2024-01-10T00:39:26;173.10;;;58.80;;
59474;SDS011;45288;51.136;16.928;2024-01-10T00:42:12;163.00;;;56.35;;
59474;SDS011;45288;51.136;16.928;2024-01-10T00:44:51;164.52;;;55.97;;
59474;SDS011;45288;51.136;16.928;2024-01-10T00:47:37;171.30;;;57.60;;
59474;SDS011;45288;51.136;16.928;2024-01-10T00:50:16;165.65;;;56.80;;
59474;SDS011;45288;51.136;16.928;2024-01-10T00:53:02;161.43;;;54.97;;
59474;SDS011;45288;51.136;16.928;2024-01-10T00:55:41;168.47;;;56.67;;
59474;SDS011;45288;51.136;16.928;2024-01-10T00:58:27;169.02;;;56.55;;
59474;SDS011;45288;51.136;16.928;2024-01-10T01:01:06;174.50;;;57.65;;
59474;SDS011;45288;51.136;16.928;2024-01-10T01:03:52;175.50;;;57.08;;
59474;SDS011;45288;51.136;16.928;2024-01-10T01:06:38;169.70;;;56.75;;
59474;SDS011;45288;51.136;16.928;2024-01-10T01:09:31;176.45;;;58.53;;
59474;SDS011;45288;51.136;16.928;2024-01-10T01:12:04;172.05;;;58.15;;
59474;SDS011;45288;51.136;16.928;2024-01-10T01:14:57;164.80;;;55.80;;
59474;SDS011;45288;51.136;16.928;2024-01-10T01:17:29;188.05;;;59.90;;
59474;SDS011;45288;51.136;16.928;2024-01-10T01:20:22;173.27;;;56.50;;
59474;SDS011;45288;51.136;16.928;2024-01-10T01:22:54;177.13;;;57.80;;
59474;SDS011;45288;51.136;16.928;2024-01-10T01:25:47;164.77;;;55.47;;
59474;SDS011;45288;51.136;16.928;2024-01-10T01:28:19;167.60;;;55.67;;
59474;SDS011;45288;51.136;16.928;2024-01-10T01:31:12;170.63;;;56.22;;
59474;SDS011;45288;51.136;16.928;2024-01-10T01:33:44;172.20;;;56.37;;
59474;SDS011;45288;51.136;16.928;2024-01-10T01:36:38;184.10;;;58.42;;
59474;SDS011;45288;51.136;16.928;2024-01-10T01:39:10;185.35;;;61.22;;
59474;SDS011;45288;51.136;16.928;2024-01-10T01:42:03;166.05;;;57.67;;
59474;SDS011;45288;51.136;16.928;2024-01-10T01:44:42;178.93;;;57.03;;
59474;SDS011;45288;51.136;16.928;2024-01-10T01:47:28;180.93;;;59.03;;
59474;SDS011;45288;51.136;16.928;2024-01-10T01:50:07;167.23;;;54.22;;
59474;SDS011;45288;51.136;16.928;2024-01-10T01:52:54;168.40;;;55.13;;
59474;SDS011;45288;51.136;16.928;2024-01-10T01:55:33;163.48;;;54.90;;
59474;SDS011;45288;51.136;16.928;2024-01-10T01:58:19;155.27;;;52.45;;
59474;SDS011;45288;51.136;16.928;2024-01-10T02:00:59;157.00;;;53.10;;
59474;SDS011;45288;51.136;16.928;2024-01-10T02:03:47;163.00;;;53.78;;
59474;SDS011;45288;51.136;16.928;2024-01-10T02:06:33;161.23;;;51.88;;
59474;SDS011;45288;51.136;16.928;2024-01-10T02:09:26;162.57;;;53.60;;
59474;SDS011;45288;51.136;16.928;2024-01-10T02:11:58;153.00;;;51.90;;
59474;SDS011;45288;51.136;16.928;2024-01-10T02:14:51;160.77;;;53.10;;
59474;SDS011;45288;51.136;16.928;2024-01-10T02:17:24;167.77;;;55.13;;
59474;SDS011;45288;51.136;16.928;2024-01-10T02:20:17;160.00;;;52.88;;
59474;SDS011;45288;51.136;16.928;2024-01-10T02:22:49;164.23;;;52.92;;
59474;SDS011;45288;51.136;16.928;2024-01-10T02:25:42;169.52;;;54.78;;
59474;SDS011;45288;51.136;16.928;2024-01-10T02:28:14;167.30;;;54.67;;
59474;SDS011;45288;51.136;16.928;2024-01-10T02:31:08;160.90;;;52.88;;
59474;SDS011;45288;51.136;16.928;2024-01-10T02:33:40;175.13;;;56.60;;
59474;SDS011;45288;51.136;16.928;2024-01-10T02:36:33;169.77;;;56.25;;
59474;SDS011;45288;51.136;16.928;2024-01-10T02:39:12;161.73;;;54.10;;
59474;SDS011;45288;51.136;16.928;2024-01-10T02:41:58;160.70;;;52.67;;
59474;SDS011;45288;51.136;16.928;2024-01-10T02:44:37;155.35;;;53.80;;
59474;SDS011;45288;51.136;16.928;2024-01-10T02:47:23;171.90;;;56.27;;
59474;SDS011;45288;51.136;16.928;2024-01-10T02:50:03;163.07;;;53.50;;
59474;SDS011;45288;51.136;16.928;2024-01-10T02:52:49;168.93;;;54.47;;
59474;SDS011;45288;51.136;16.928;2024-01-10T02:55:28;173.30;;;56.50;;
59474;SDS011;45288;51.136;16.928;2024-01-10T02:58:14;167.13;;;53.80;;
59474;SDS011;45288;51.136;16.928;2024-01-10T03:00:53;160.57;;;52.58;;
59474;SDS011;45288;51.136;16.928;2024-01-10T03:03:40;168.20;;;56.45;;
59474;SDS011;45288;51.136;16.928;2024-01-10T03:06:19;177.63;;;57.13;;
59474;SDS011;45288;51.136;16.928;2024-01-10T03:09:12;169.95;;;55.50;;
59474;SDS011;45288;51.136;16.928;2024-01-10T03:11:44;171.50;;;55.03;;
59474;SDS011;45288;51.136;16.928;2024-01-10T03:14:37;167.48;;;56.08;;
59474;SDS011;45288;51.136;16.928;2024-01-10T03:17:09;159.32;;;53.55;;
59474;SDS011;45288;51.136;16.928;2024-01-10T03:20:02;157.73;;;52.47;;
59474;SDS011;45288;51.136;16.928;2024-01-10T03:22:36;173.98;;;55.88;;
59474;SDS011;45288;51.136;16.928;2024-01-10T03:25:29;161.40;;;54.37;;
59474;SDS011;45288;51.136;16.928;2024-01-10T03:28:01;162.70;;;54.08;;
59474;SDS011;45288;51.136;16.928;2024-01-10T03:30:54;161.32;;;53.83;;
59474;SDS011;45288;51.136;16.928;2024-01-10T03:33:26;152.75;;;50.53;;
59474;SDS011;45288;51.136;16.928;2024-01-10T03:36:19;171.80;;;57.50;;
59474;SDS011;45288;51.136;16.928;2024-01-10T03:38:51;161.45;;;52.45;;
59474;SDS011;45288;51.136;16.928;2024-01-10T03:41:44;174.55;;;56.45;;
59474;SDS011;45288;51.136;16.928;2024-01-10T03:44:16;175.63;;;56.38;;
59474;SDS011;45288;51.136;16.928;2024-01-10T03:47:09;172.13;;;55.22;;
59474;SDS011;45288;51.136;16.928;2024-01-10T03:49:41;169.63;;;57.38;;
59474;SDS011;45288;51.136;16.928;2024-01-10T03:52:34;173.82;;;56.72;;
59474;SDS011;45288;51.136;16.928;2024-01-10T03:55:07;154.05;;;51.83;;
59474;SDS011;45288;51.136;16.928;2024-01-10T03:57:59;162.83;;;53.53;;
59474;SDS011;45288;51.136;16.928;2024-01-10T04:00:31;157.45;;;53.70;;
59474;SDS011;45288;51.136;16.928;2024-01-10T04:03:24;162.65;;;54.67;;
59474;SDS011;45288;51.136;16.928;2024-01-10T04:05:56;161.30;;;53.60;;
59474;SDS011;45288;51.136;16.928;2024-01-10T04:08:49;163.20;;;54.42;;
59474;SDS011;45288;51.136;16.928;2024-01-10T04:11:42;172.95;;;56.58;;
59474;SDS011;45288;51.136;16.928;2024-01-10T04:14:14;160.30;;;53.55;;
59474;SDS011;45288;51.136;16.928;2024-01-10T04:17:07;169.18;;;55.15;;
59474;SDS011;45288;51.136;16.928;2024-01-10T04:19:40;168.25;;;54.20;;
59474;SDS011;45288;51.136;16.928;2024-01-10T04:22:33;162.23;;;52.55;;
59474;SDS011;45288;51.136;16.928;2024-01-10T04:25:06;165.70;;;54.65;;
59474;SDS011;45288;51.136;16.928;2024-01-10T04:27:59;155.93;;;53.22;;
59474;SDS011;45288;51.136;16.928;2024-01-10T04:30:31;170.27;;;54.50;;
59474;SDS011;45288;51.136;16.928;2024-01-10T04:33:24;171.55;;;55.35;;
59474;SDS011;45288;51.136;16.928;2024-01-10T04:35:56;175.60;;;56.07;;
59474;SDS011;45288;51.136;16.928;2024-01-10T04:38:49;168.17;;;55.33;;
59474;SDS011;45288;51.136;16.928;2024-01-10T04:41:28;168.27;;;53.92;;
59474;SDS011;45288;51.136;16.928;2024-01-10T04:44:14;174.30;;;53.90;;
59474;SDS011;45288;51.136;16.928;2024-01-10T04:46:53;172.10;;;54.67;;
59474;SDS011;45288;51.136;16.928;2024-01-10T04:49:39;185.93;;;55.92;;
59474;SDS011;45288;51.136;16.928;2024-01-10T04:52:18;158.57;;;54.13;;
59474;SDS011;45288;51.136;16.928;2024-01-10T04:55:04;163.55;;;55.40;;
59474;SDS011;45288;51.136;16.928;2024-01-10T04:57:44;168.07;;;57.80;;
59474;SDS011;45288;51.136;16.928;2024-01-10T05:00:30;174.88;;;66.07;;
59474;SDS011;45288;51.136;16.928;2024-01-10T05:03:26;182.55;;;65.88;;
59474;SDS011;45288;51.136;16.928;2024-01-10T05:06:19;166.20;;;57.65;;
59474;SDS011;45288;51.136;16.928;2024-01-10T05:08:51;173.53;;;56.77;;
59474;SDS011;45288;51.136;16.928;2024-01-10T05:11:44;165.27;;;56.88;;
59474;SDS011;45288;51.136;16.928;2024-01-10T05:14:19;174.05;;;55.83;;
59474;SDS011;45288;51.136;16.928;2024-01-10T05:17:12;172.65;;;56.42;;
59474;SDS011;45288;51.136;16.928;2024-01-10T05:19:44;180.23;;;58.97;;
59474;SDS011;45288;51.136;16.928;2024-01-10T05:22:39;176.63;;;62.30;;
59474;SDS011;45288;51.136;16.928;2024-01-10T05:25:12;174.63;;;57.35;;
59474;SDS011;45288;51.136;16.928;2024-01-10T05:28:05;166.68;;;61.47;;
59474;SDS011;45288;51.136;16.928;2024-01-10T05:30:38;174.13;;;59.00;;
59474;SDS011;45288;51.136;16.928;2024-01-10T05:33:31;180.65;;;64.20;;
59474;SDS011;45288;51.136;16.928;2024-01-10T05:36:03;168.70;;;60.72;;
59474;SDS011;45288;51.136;16.928;2024-01-10T05:38:59;168.25;;;54.88;;
59474;SDS011;45288;51.136;16.928;2024-01-10T05:41:31;195.57;;;59.28;;
59474;SDS011;45288;51.136;16.928;2024-01-10T05:44:25;174.82;;;56.83;;
59474;SDS011;45288;51.136;16.928;2024-01-10T05:47:04;192.88;;;58.78;;
59474;SDS011;45288;51.136;16.928;2024-01-10T05:49:50;201.13;;;62.70;;
59474;SDS011;45288;51.136;16.928;2024-01-10T05:52:29;187.98;;;59.75;;
59474;SDS011;45288;51.136;16.928;2024-01-10T05:55:16;213.63;;;71.77;;
59474;SDS011;45288;51.136;16.928;2024-01-10T05:57:55;191.55;;;58.60;;
59474;SDS011;45288;51.136;16.928;2024-01-10T06:00:41;185.13;;;58.83;;
59474;SDS011;45288;51.136;16.928;2024-01-10T06:03:20;189.77;;;59.75;;
59474;SDS011;45288;51.136;16.928;2024-01-10T06:06:06;180.57;;;65.45;;
59474;SDS011;45288;51.136;16.928;2024-01-10T06:08:52;174.75;;;60.00;;
59474;SDS011;45288;51.136;16.928;2024-01-10T06:11:45;184.80;;;59.05;;
59474;SDS011;45288;51.136;16.928;2024-01-10T06:14:17;181.77;;;61.75;;
59474;SDS011;45288;51.136;16.928;2024-01-10T06:17:10;189.95;;;74.68;;
59474;SDS011;45288;51.136;16.928;2024-01-10T06:19:43;186.23;;;65.63;;
59474;SDS011;45288;51.136;16.928;2024-01-10T06:22:35;184.18;;;66.43;;
59474;SDS011;45288;51.136;16.928;2024-01-10T06:25:07;186.90;;;65.53;;
59474;SDS011;45288;51.136;16.928;2024-01-10T06:28:00;189.45;;;78.43;;
59474;SDS011;45288;51.136;16.928;2024-01-10T06:30:32;210.48;;;73.55;;
59474;SDS011;45288;51.136;16.928;2024-01-10T06:33:25;189.57;;;65.15;;
59474;SDS011;45288;51.136;16.928;2024-01-10T06:35:57;184.73;;;62.83;;
59474;SDS011;45288;51.136;16.928;2024-01-10T06:38:50;186.20;;;63.75;;
59474;SDS011;45288;51.136;16.928;2024-01-10T06:41:22;203.50;;;82.15;;
59474;SDS011;45288;51.136;16.928;2024-01-10T06:44:15;195.32;;;80.18;;
59474;SDS011;45288;51.136;16.928;2024-01-10T06:46:58;181.10;;;66.20;;
59474;SDS011;45288;51.136;16.928;2024-01-10T06:49:43;195.68;;;69.35;;
59474;SDS011;45288;51.136;16.928;2024-01-10T06:52:22;189.88;;;65.20;;
59474;SDS011;45288;51.136;16.928;2024-01-10T06:55:08;183.90;;;67.80;;
59474;SDS011;45288;51.136;16.928;2024-01-10T06:57:47;190.57;;;69.57;;
59474;SDS011;45288;51.136;16.928;2024-01-10T07:00:33;196.57;;;79.88;;
59474;SDS011;45288;51.136;16.928;2024-01-10T07:03:12;192.75;;;70.07;;
59474;SDS011;45288;51.136;16.928;2024-01-10T07:05:58;193.27;;;69.77;;
59474;SDS011;45288;51.136;16.928;2024-01-10T07:08:37;193.13;;;86.88;;
59474;SDS011;45288;51.136;16.928;2024-01-10T07:11:23;205.30;;;100.20;;
59474;SDS011;45288;51.136;16.928;2024-01-10T07:14:02;196.27;;;89.78;;
59474;SDS011;45288;51.136;16.928;2024-01-10T07:16:48;201.45;;;94.28;;
59474;SDS011;45288;51.136;16.928;2024-01-10T07:19:27;208.90;;;97.10;;
59474;SDS011;45288;51.136;16.928;2024-01-10T07:22:13;204.15;;;85.80;;
59474;SDS011;45288;51.136;16.928;2024-01-10T07:24:52;196.98;;;87.05;;
59474;SDS011;45288;51.136;16.928;2024-01-10T07:27:38;186.38;;;64.60;;
59474;SDS011;45288;51.136;16.928;2024-01-10T07:30:17;187.82;;;66.53;;
59474;SDS011;45288;51.136;16.928;2024-01-10T07:33:03;180.23;;;71.32;;
59474;SDS011;45288;51.136;16.928;2024-01-10T07:35:42;187.80;;;71.38;;
59474;SDS011;45288;51.136;16.928;2024-01-10T07:38:28;187.52;;;78.22;;
59474;SDS011;45288;51.136;16.928;2024-01-10T07:41:07;197.20;;;84.90;;
59474;SDS011;45288;51.136;16.928;2024-01-10T07:43:53;216.43;;;99.55;;
59474;SDS011;45288;51.136;16.928;2024-01-10T07:46:32;198.93;;;76.78;;
59474;SDS011;45288;51.136;16.928;2024-01-10T07:49:26;191.80;;;78.70;;
59474;SDS011;45288;51.136;16.928;2024-01-10T07:51:59;186.57;;;64.22;;
59474;SDS011;45288;51.136;16.928;2024-01-10T07:54:52;186.70;;;80.10;;
59474;SDS011;45288;51.136;16.928;2024-01-10T07:57:24;190.27;;;69.30;;
59474;SDS011;45288;51.136;16.928;2024-01-10T08:00:17;180.63;;;59.42;;
59474;SDS011;45288;51.136;16.928;2024-01-10T08:02:52;189.85;;;68.88;;
59474;SDS011;45288;51.136;16.928;2024-01-10T08:05:44;184.68;;;64.78;;
59474;SDS011;45288;51.136;16.928;2024-01-10T08:08:16;173.70;;;58.90;;
59474;SDS011;45288;51.136;16.928;2024-01-10T08:11:09;158.40;;;59.92;;
59474;SDS011;45288;51.136;16.928;2024-01-10T08:13:41;163.20;;;60.57;;
59474;SDS011;45288;51.136;16.928;2024-01-10T08:16:34;165.60;;;61.25;;
59474;SDS011;45288;51.136;16.928;2024-01-10T08:19:07;173.43;;;64.15;;
59474;SDS011;45288;51.136;16.928;2024-01-10T08:22:00;168.02;;;68.03;;
59474;SDS011;45288;51.136;16.928;2024-01-10T08:24:32;166.85;;;75.65;;
59474;SDS011;45288;51.136;16.928;2024-01-10T08:27:25;162.88;;;61.60;;
59474;SDS011;45288;51.136;16.928;2024-01-10T08:29:57;172.90;;;63.20;;
59474;SDS011;45288;51.136;16.928;2024-01-10T08:32:50;177.60;;;72.75;;
59474;SDS011;45288;51.136;16.928;2024-01-10T08:35:24;180.27;;;78.65;;
59474;SDS011;45288;51.136;16.928;2024-01-10T08:38:16;176.93;;;74.60;;
59474;SDS011;45288;51.136;16.928;2024-01-10T08:40:48;174.05;;;62.78;;
59474;SDS011;45288;51.136;16.928;2024-01-10T08:43:41;185.70;;;62.75;;
59474;SDS011;45288;51.136;16.928;2024-01-10T08:46:20;179.27;;;62.95;;
59474;SDS011;45288;51.136;16.928;2024-01-10T08:49:06;189.02;;;63.42;;
59474;SDS011;45288;51.136;16.928;2024-01-10T08:51:45;178.13;;;61.45;;
59474;SDS011;45288;51.136;16.928;2024-01-10T08:54:32;172.23;;;60.50;;
59474;SDS011;45288;51.136;16.928;2024-01-10T08:57:12;186.73;;;64.97;;
59474;SDS011;45288;51.136;16.928;2024-01-10T08:59:58;176.27;;;60.92;;
59474;SDS011;45288;51.136;16.928;2024-01-10T09:02:38;189.80;;;64.38;;
59474;SDS011;45288;51.136;16.928;2024-01-10T09:05:24;178.77;;;61.97;;
59474;SDS011;45288;51.136;16.928;2024-01-10T09:08:03;175.93;;;62.95;;
59474;SDS011;45288;51.136;16.928;2024-01-10T09:10:50;191.90;;;66.43;;
59474;SDS011;45288;51.136;16.928;2024-01-10T09:13:29;195.20;;;70.47;;
59474;SDS011;45288;51.136;16.928;2024-01-10T09:16:16;184.98;;;65.22;;
59474;SDS011;45288;51.136;16.928;2024-01-10T09:18:57;183.55;;;64.82;;
59474;SDS011;45288;51.136;16.928;2024-01-10T09:21:43;168.93;;;56.35;;
59474;SDS011;45288;51.136;16.928;2024-01-10T09:24:22;165.88;;;56.50;;
59474;SDS011;45288;51.136;16.928;2024-01-10T09:27:09;165.60;;;58.03;;
59474;SDS011;45288;51.136;16.928;2024-01-10T09:29:48;181.35;;;62.10;;
59474;SDS011;45288;51.136;16.928;2024-01-10T09:32:34;166.37;;;60.17;;
59474;SDS011;45288;51.136;16.928;2024-01-10T09:35:13;173.55;;;63.80;;
59474;SDS011;45288;51.136;16.928;2024-01-10T09:37:59;174.73;;;61.27;;
59474;SDS011;45288;51.136;16.928;2024-01-10T09:40:39;181.67;;;61.53;;
59474;SDS011;45288;51.136;16.928;2024-01-10T09:43:25;172.70;;;60.28;;
59474;SDS011;45288;51.136;16.928;2024-01-10T09:46:04;176.27;;;64.72;;
59474;SDS011;45288;51.136;16.928;2024-01-10T09:48:53;186.38;;;64.20;;
59474;SDS011;45288;51.136;16.928;2024-01-10T09:51:33;195.15;;;64.03;;
59474;SDS011;45288;51.136;16.928;2024-01-10T09:54:19;165.60;;;60.55;;
59474;SDS011;45288;51.136;16.928;2024-01-10T09:56:59;189.77;;;62.92;;
59474;SDS011;45288;51.136;16.928;2024-01-10T09:59:45;183.82;;;63.55;;
59474;SDS011;45288;51.136;16.928;2024-01-10T10:02:25;185.60;;;63.53;;
59474;SDS011;45288;51.136;16.928;2024-01-10T10:05:16;179.07;;;61.03;;
59474;SDS011;45288;51.136;16.928;2024-01-10T10:08:02;166.73;;;59.00;;
59474;SDS011;45288;51.136;16.928;2024-01-10T10:10:55;170.38;;;57.20;;
59474;SDS011;45288;51.136;16.928;2024-01-10T10:13:28;172.23;;;59.05;;
59474;SDS011;45288;51.136;16.928;2024-01-10T10:16:27;171.63;;;59.25;;
59474;SDS011;45288;51.136;16.928;2024-01-10T10:18:59;169.48;;;56.58;;
59474;SDS011;45288;51.136;16.928;2024-01-10T10:21:52;193.10;;;61.38;;
59474;SDS011;45288;51.136;16.928;2024-01-10T10:24:25;168.40;;;57.95;;
59474;SDS011;45288;51.136;16.928;2024-01-10T10:27:18;180.43;;;60.17;;
59474;SDS011;45288;51.136;16.928;2024-01-10T10:29:50;173.15;;;57.83;;
59474;SDS011;45288;51.136;16.928;2024-01-10T10:32:43;175.48;;;61.35;;
59474;SDS011;45288;51.136;16.928;2024-01-10T10:35:15;166.25;;;56.53;;
59474;SDS011;45288;51.136;16.928;2024-01-10T10:38:10;145.20;;;53.05;;
59474;SDS011;45288;51.136;16.928;2024-01-10T10:40:42;176.13;;;57.83;;
59474;SDS011;45288;51.136;16.928;2024-01-10T10:43:35;170.63;;;58.28;;
59474;SDS011;45288;51.136;16.928;2024-01-10T10:46:15;166.40;;;61.70;;
59474;SDS011;45288;51.136;16.928;2024-01-10T10:49:03;175.17;;;61.00;;
59474;SDS011;45288;51.136;16.928;2024-01-10T10:51:49;169.05;;;59.53;;
59474;SDS011;45288;51.136;16.928;2024-01-10T10:54:36;181.98;;;60.65;;
59474;SDS011;45288;51.136;16.928;2024-01-10T10:57:17;176.50;;;58.20;;
59474;SDS011;45288;51.136;16.928;2024-01-10T11:00:04;167.98;;;58.40;;
59474;SDS011;45288;51.136;16.928;2024-01-10T11:02:46;162.73;;;57.38;;
59474;SDS011;45288;51.136;16.928;2024-01-10T11:05:32;178.68;;;57.92;;
59474;SDS011;45288;51.136;16.928;2024-01-10T11:08:14;171.85;;;59.00;;
59474;SDS011;45288;51.136;16.928;2024-01-10T11:11:05;178.05;;;60.05;;
59474;SDS011;45288;51.136;16.928;2024-01-10T11:25:50;167.95;;;57.70;;
59474;SDS011;45288;51.136;16.928;2024-01-10T11:28:36;174.00;;;58.40;;
59474;SDS011;45288;51.136;16.928;2024-01-10T11:31:18;170.05;;;59.80;;
59474;SDS011;45288;51.136;16.928;2024-01-10T11:34:13;178.82;;;62.90;;
59474;SDS011;45288;51.136;16.928;2024-01-10T11:37:11;184.13;;;63.03;;
59474;SDS011;45288;51.136;16.928;2024-01-10T11:39:57;182.45;;;63.85;;
59474;SDS011;45288;51.136;16.928;2024-01-10T11:42:43;188.85;;;64.90;;
59474;SDS011;45288;51.136;16.928;2024-01-10T11:48:09;184.68;;;67.18;;
59474;SDS011;45288;51.136;16.928;2024-01-10T11:51:02;185.50;;;66.13;;
59474;SDS011;45288;51.136;16.928;2024-01-10T11:53:41;183.50;;;64.90;;
59474;SDS011;45288;51.136;16.928;2024-01-10T11:56:38;190.68;;;64.65;;
59474;SDS011;45288;51.136;16.928;2024-01-10T11:59:11;177.00;;;61.00;;
59474;SDS011;45288;51.136;16.928;2024-01-10T12:02:06;173.25;;;60.72;;
59474;SDS011;45288;51.136;16.928;2024-01-10T12:04:39;171.25;;;60.75;;
59474;SDS011;45288;51.136;16.928;2024-01-10T12:07:32;164.05;;;59.25;;
59474;SDS011;45288;51.136;16.928;2024-01-10T12:10:26;170.38;;;61.00;;
59474;SDS011;45288;51.136;16.928;2024-01-10T12:12:58;164.23;;;59.50;;
59474;SDS011;45288;51.136;16.928;2024-01-10T12:15:51;169.38;;;59.83;;
59474;SDS011;45288;51.136;16.928;2024-01-10T12:18:23;166.73;;;60.25;;
59474;SDS011;45288;51.136;16.928;2024-01-10T12:21:16;156.75;;;56.00;;
59474;SDS011;45288;51.136;16.928;2024-01-10T12:23:50;157.23;;;55.87;;
59474;SDS011;45288;51.136;16.928;2024-01-10T12:26:46;161.60;;;54.97;;
59474;SDS011;45288;51.136;16.928;2024-01-10T12:29:20;158.03;;;57.23;;
59474;SDS011;45288;51.136;16.928;2024-01-10T12:32:12;152.45;;;56.45;;
59474;SDS011;45288;51.136;16.928;2024-01-10T12:34:44;154.57;;;55.13;;
59474;SDS011;45288;51.136;16.928;2024-01-10T12:37:37;158.80;;;57.72;;
59474;SDS011;45288;51.136;16.928;2024-01-10T12:40:09;168.55;;;59.00;;
59474;SDS011;45288;51.136;16.928;2024-01-10T12:43:04;169.18;;;59.45;;
59474;SDS011;45288;51.136;16.928;2024-01-10T12:45:36;167.52;;;59.85;;
59474;SDS011;45288;51.136;16.928;2024-01-10T12:48:31;169.02;;;60.60;;
59474;SDS011;45288;51.136;16.928;2024-01-10T12:51:12;156.10;;;56.85;;
59474;SDS011;45288;51.136;16.928;2024-01-10T12:53:58;165.27;;;57.83;;
59474;SDS011;45288;51.136;16.928;2024-01-10T12:56:38;159.60;;;55.60;;
59474;SDS011;45288;51.136;16.928;2024-01-10T12:59:24;149.87;;;54.07;;
59474;SDS011;45288;51.136;16.928;2024-01-10T13:02:03;142.52;;;51.28;;
59474;SDS011;45288;51.136;16.928;2024-01-10T13:04:49;146.15;;;53.80;;
59474;SDS011;45288;51.136;16.928;2024-01-10T13:07:28;153.57;;;55.10;;
59474;SDS011;45288;51.136;16.928;2024-01-10T13:10:21;146.00;;;53.10;;
59474;SDS011;45288;51.136;16.928;2024-01-10T13:13:14;156.77;;;52.53;;
59474;SDS011;45288;51.136;16.928;2024-01-10T13:15:49;154.02;;;54.00;;
59474;SDS011;45288;51.136;16.928;2024-01-10T13:18:42;153.98;;;55.65;;
59474;SDS011;45288;51.136;16.928;2024-01-10T13:21:15;165.43;;;57.20;;
59474;SDS011;45288;51.136;16.928;2024-01-10T13:24:07;149.38;;;54.50;;
59474;SDS011;45288;51.136;16.928;2024-01-10T13:26:39;158.13;;;55.45;;
59474;SDS011;45288;51.136;16.928;2024-01-10T13:29:33;177.55;;;57.25;;
59474;SDS011;45288;51.136;16.928;2024-01-10T13:32:07;162.02;;;54.72;;
59474;SDS011;45288;51.136;16.928;2024-01-10T13:35:01;161.20;;;56.13;;
59474;SDS011;45288;51.136;16.928;2024-01-10T13:37:34;168.27;;;55.22;;
59474;SDS011;45288;51.136;16.928;2024-01-10T13:40:27;167.43;;;57.83;;
59474;SDS011;45288;51.136;16.928;2024-01-10T13:43:00;154.95;;;56.42;;
59474;SDS011;45288;51.136;16.928;2024-01-10T13:45:53;170.52;;;67.40;;
59474;SDS011;45288;51.136;16.928;2024-01-10T13:48:26;167.00;;;75.43;;
59474;SDS011;45288;51.136;16.928;2024-01-10T13:51:19;167.68;;;58.70;;
59474;SDS011;45288;51.136;16.928;2024-01-10T13:53:51;175.15;;;60.72;;
59474;SDS011;45288;51.136;16.928;2024-01-10T13:56:44;170.68;;;60.33;;
59474;SDS011;45288;51.136;16.928;2024-01-10T13:59:18;166.65;;;60.47;;
59474;SDS011;45288;51.136;16.928;2024-01-10T14:02:10;162.32;;;59.00;;
59474;SDS011;45288;51.136;16.928;2024-01-10T14:04:42;162.60;;;58.83;;
59474;SDS011;45288;51.136;16.928;2024-01-10T14:07:35;174.55;;;62.42;;
59474;SDS011;45288;51.136;16.928;2024-01-10T14:10:21;175.00;;;65.47;;
59474;SDS011;45288;51.136;16.928;2024-01-10T14:13:15;183.10;;;68.80;;
59474;SDS011;45288;51.136;16.928;2024-01-10T14:15:46;189.68;;;69.38;;
59474;SDS011;45288;51.136;16.928;2024-01-10T14:18:39;188.95;;;70.50;;
59474;SDS011;45288;51.136;16.928;2024-01-10T14:21:11;198.33;;;74.13;;
59474;SDS011;45288;51.136;16.928;2024-01-10T14:24:05;205.65;;;74.53;;
59474;SDS011;45288;51.136;16.928;2024-01-10T14:26:39;209.07;;;77.17;;
59474;SDS011;45288;51.136;16.928;2024-01-10T14:29:31;214.35;;;80.13;;
59474;SDS011;45288;51.136;16.928;2024-01-10T14:32:05;198.60;;;76.90;;
59474;SDS011;45288;51.136;16.928;2024-01-10T14:34:57;197.93;;;76.55;;
59474;SDS011;45288;51.136;16.928;2024-01-10T14:37:30;202.88;;;76.65;;
59474;SDS011;45288;51.136;16.928;2024-01-10T14:40:22;195.50;;;74.00;;
59474;SDS011;45288;51.136;16.928;2024-01-10T14:42:56;209.65;;;76.60;;
59474;SDS011;45288;51.136;16.928;2024-01-10T14:45:48;208.27;;;76.80;;
59474;SDS011;45288;51.136;16.928;2024-01-10T14:48:21;207.02;;;78.38;;
59474;SDS011;45288;51.136;16.928;2024-01-10T14:51:13;201.43;;;78.93;;
59474;SDS011;45288;51.136;16.928;2024-01-10T14:53:45;211.77;;;79.93;;
59474;SDS011;45288;51.136;16.928;2024-01-10T14:56:38;211.55;;;77.28;;
59474;SDS011;45288;51.136;16.928;2024-01-10T14:59:15;213.00;;;79.00;;
59474;SDS011;45288;51.136;16.928;2024-01-10T15:02:07;215.35;;;78.50;;
59474;SDS011;45288;51.136;16.928;2024-01-10T15:04:40;214.05;;;79.93;;
59474;SDS011;45288;51.136;16.928;2024-01-10T15:07:33;215.50;;;81.47;;
59474;SDS011;45288;51.136;16.928;2024-01-10T15:10:06;218.73;;;81.50;;
59474;SDS011;45288;51.136;16.928;2024-01-10T15:12:58;227.48;;;85.20;;
59474;SDS011;45288;51.136;16.928;2024-01-10T15:15:31;213.73;;;83.03;;
59474;SDS011;45288;51.136;16.928;2024-01-10T15:18:23;219.02;;;84.25;;
59474;SDS011;45288;51.136;16.928;2024-01-10T15:21:02;229.27;;;86.22;;
59474;SDS011;45288;51.136;16.928;2024-01-10T15:23:48;225.40;;;84.50;;
59474;SDS011;45288;51.136;16.928;2024-01-10T15:26:28;220.65;;;81.60;;
59474;SDS011;45288;51.136;16.928;2024-01-10T15:29:13;216.90;;;80.72;;
59474;SDS011;45288;51.136;16.928;2024-01-10T15:31:53;205.82;;;80.80;;
59474;SDS011;45288;51.136;16.928;2024-01-10T15:34:39;211.25;;;79.40;;
59474;SDS011;45288;51.136;16.928;2024-01-10T15:37:18;211.30;;;80.95;;
59474;SDS011;45288;51.136;16.928;2024-01-10T15:40:07;227.40;;;82.65;;
59474;SDS011;45288;51.136;16.928;2024-01-10T15:42:48;228.55;;;83.00;;